createdAt,value
2019-03-17T00:03:38.406Z,72
2019-03-17T00:08:34.984Z,73.7
2019-03-17T00:13:31.875Z,73.3
2019-03-17T00:18:28.614Z,71.4
2019-03-17T00:23:25.286Z,74.1
2019-03-17T00:28:21.820Z,74.4
2019-03-17T00:33:18.249Z,73.6
2019-03-17T00:38:15.099Z,74.3
2019-03-17T00:43:12.109Z,74.7
2019-03-17T00:48:09.149Z,72.4
2019-03-17T00:53:05.962Z,74.1
2019-03-17T00:58:02.571Z,74.2
2019-03-17T01:02:59.521Z,74.1
2019-03-17T01:07:55.716Z,74.5
2019-03-17T01:12:52.441Z,75
2019-03-17T01:17:49.351Z,76.1
2019-03-17T01:22:46.433Z,73.9
2019-03-17T01:27:43.389Z,74.7
2019-03-17T01:32:40.472Z,74.9
2019-03-17T01:37:36.485Z,75.6
2019-03-17T01:42:33.022Z,77.8
2019-03-17T01:47:29.605Z,77.2
2019-03-17T01:52:25.977Z,78
2019-03-17T01:57:22.544Z,78
2019-03-17T02:02:19.084Z,78.8
2019-03-17T02:07:16.248Z,78
2019-03-17T02:12:12.841Z,77.2
2019-03-17T02:17:10.169Z,76
2019-03-17T02:22:06.677Z,77.1
2019-03-17T02:27:03.482Z,77.6
2019-03-17T02:32:00.576Z,75.4
2019-03-17T02:36:57.229Z,77
2019-03-17T02:41:53.945Z,75.2
2019-03-17T02:46:50.553Z,75.5
2019-03-17T02:51:47.258Z,77.1
2019-03-17T02:56:43.972Z,77.4
2019-03-17T03:01:40.709Z,77.7
2019-03-17T03:06:37.786Z,77.4
2019-03-17T03:11:34.854Z,77.7
2019-03-17T03:16:31.524Z,78
2019-03-17T03:21:28.211Z,77.8
2019-03-17T03:26:24.438Z,79.9
2019-03-17T03:31:21.233Z,79.7
2019-03-17T03:36:18.048Z,80.4
2019-03-17T03:41:14.827Z,81.2
2019-03-17T03:46:11.391Z,80.4
2019-03-17T03:51:08.152Z,80.7
2019-03-17T03:56:04.590Z,81.6
2019-03-17T04:01:00.949Z,81.6
2019-03-17T04:05:58.202Z,79.7
2019-03-17T04:10:54.408Z,80.7
2019-03-17T04:15:51.037Z,80.9
2019-03-17T04:20:47.251Z,80.3
2019-03-17T04:25:43.701Z,80.7
2019-03-17T04:30:39.776Z,82.1
2019-03-17T04:35:36.121Z,80.9
2019-03-17T04:40:32.676Z,80.7
2019-03-17T04:45:29.527Z,81
2019-03-17T04:50:25.670Z,81.2
2019-03-17T04:55:22.314Z,80.1
2019-03-17T05:00:19.108Z,79.3
2019-03-17T05:05:15.995Z,79.1
2019-03-17T05:10:12.856Z,79.8
2019-03-17T05:15:09.786Z,79.5
2019-03-17T05:20:06.438Z,77.4
2019-03-17T05:25:03.255Z,76.6
2019-03-17T05:30:04.477Z,55.9
2019-03-17T05:35:03.877Z,52.6
2019-03-17T05:40:01.529Z,53.6
2019-03-17T05:45:00.714Z,55.8
2019-03-17T05:49:57.613Z,57.1
2019-03-17T05:54:54.396Z,58.5
2019-03-17T05:59:50.245Z,65
2019-03-17T06:04:48.264Z,58.9
2019-03-17T06:09:44.269Z,61
2019-03-17T06:14:41.843Z,57.6
2019-03-17T06:19:37.617Z,61.5
2019-03-17T06:24:32.907Z,59.6
2019-03-17T06:29:31.355Z,55.1
2019-03-17T06:34:29.200Z,51.5
2019-03-17T06:39:21.766Z,62.2
2019-03-17T06:44:19.700Z,55.2
2019-03-17T06:49:15.251Z,60.5
2019-03-17T06:54:11.316Z,55.5
2019-03-17T06:59:08.275Z,61.8
2019-03-17T07:04:05.750Z,59.6
2019-03-17T07:09:02.967Z,59.5
2019-03-17T07:14:00.274Z,60.6
2019-03-17T07:18:57.078Z,59.5
2019-03-17T07:23:54.351Z,56.8
2019-03-17T07:28:50.272Z,56.5
2019-03-17T07:33:48.614Z,54.1
2019-03-17T07:38:45.404Z,52.8
2019-03-17T07:43:42.451Z,51.4
2019-03-17T07:48:37.681Z,52.1
2019-03-17T07:53:35.208Z,52.5
2019-03-17T07:58:31.851Z,52.1
2019-03-17T08:03:27.878Z,50.1
2019-03-17T08:08:25.301Z,49
2019-03-17T08:13:21.943Z,48.9
2019-03-17T08:18:19.398Z,49.1
2019-03-17T08:23:16.709Z,47
2019-03-17T08:28:13.127Z,45.3
2019-03-17T08:33:09.215Z,45.6
2019-03-17T08:38:06.282Z,43.6
2019-03-17T08:43:03.804Z,36.1
2019-03-17T08:48:01.483Z,31.4
2019-03-17T08:52:57.798Z,34.4
2019-03-17T08:57:55.066Z,34.2
2019-03-17T09:02:52.571Z,30.8
2019-03-17T09:07:50.443Z,33.2
2019-03-17T09:12:47.226Z,32.1
2019-03-17T09:17:44.408Z,31.8
2019-03-17T09:22:42.284Z,30.4
2019-03-17T09:27:39.025Z,32.4
2019-03-17T09:32:35.570Z,31.9
2019-03-17T09:37:33.283Z,33.5
2019-03-17T09:42:30.500Z,32.5
2019-03-17T09:47:29.493Z,28.5
2019-03-17T09:52:26.291Z,29.5
2019-03-17T09:57:23.908Z,30.2
2019-03-17T10:02:20.724Z,28.4
2019-03-17T10:07:16.997Z,30.6
2019-03-17T10:12:14.312Z,29.4
2019-03-17T10:17:10.172Z,30
2019-03-17T10:22:06.996Z,28.9
2019-03-17T10:27:03.921Z,29.1
2019-03-17T10:32:01.623Z,30
2019-03-17T10:36:58.764Z,28.4
2019-03-17T10:41:56.521Z,27.3
2019-03-17T10:46:57.449Z,26
2019-03-17T10:51:54.188Z,24.6
2019-03-17T10:56:49.963Z,27.2
2019-03-17T11:01:49.945Z,27.1
2019-03-17T11:06:46.432Z,25.5
2019-03-17T11:11:44.441Z,23.8
2019-03-17T11:16:39.172Z,25.9
2019-03-17T11:21:33.982Z,28.2
2019-03-17T11:26:32.401Z,24.9
2019-03-17T11:31:28.222Z,27.4
2019-03-17T11:36:24.847Z,25.6
2019-03-17T11:41:22.507Z,25.7
2019-03-17T11:46:19.253Z,25
2019-03-17T11:51:17.028Z,25.3
2019-03-17T11:56:14.055Z,24
2019-03-17T12:01:11.022Z,24.6
2019-03-17T12:06:08.058Z,24.1
2019-03-17T12:11:04.658Z,24.2
2019-03-17T12:16:01.540Z,21.8
2019-03-17T12:20:57.540Z,23.8
2019-03-17T12:25:53.640Z,23
2019-03-17T12:30:50.634Z,22.9
2019-03-17T12:35:47.444Z,25.1
2019-03-17T12:40:44.342Z,22.6
2019-03-17T12:45:43.845Z,22.1
2019-03-17T12:50:41.145Z,22.7
2019-03-17T12:55:37.784Z,22.1
2019-03-17T13:00:34.149Z,22.3
2019-03-17T13:05:30.934Z,23.1
2019-03-17T13:10:27.850Z,22.8
2019-03-17T13:15:24.156Z,22.5
2019-03-17T13:20:20.836Z,24.2
2019-03-17T13:25:17.678Z,23.1
2019-03-17T13:30:14.637Z,24.4
2019-03-17T13:35:11.820Z,21.8
2019-03-17T13:40:08.923Z,20.9
2019-03-17T13:45:05.891Z,22.5
2019-03-17T13:50:03.182Z,22
2019-03-17T13:55:00.378Z,22.6
2019-03-17T13:59:56.475Z,21.6
2019-03-17T14:04:53.699Z,21.3
2019-03-17T14:09:49.038Z,22.5
2019-03-17T14:14:47.217Z,23.1
2019-03-17T14:19:43.640Z,23.4
2019-03-17T14:24:40.334Z,21.6
2019-03-17T14:29:37.181Z,22.1
2019-03-17T14:34:33.827Z,23.2
2019-03-17T14:39:30.240Z,22.8
2019-03-17T14:44:27.017Z,23.7
2019-03-17T14:49:23.890Z,23.6
2019-03-17T14:54:20.811Z,24.9
2019-03-17T14:59:17.509Z,24.4
2019-03-17T15:04:14.479Z,23.5
2019-03-17T15:09:10.437Z,23.2
2019-03-17T15:14:06.775Z,24.7
2019-03-17T15:19:03.608Z,25.9
2019-03-17T15:24:00.133Z,26.3
2019-03-17T15:28:56.273Z,25.9
2019-03-17T15:33:52.931Z,28.6
2019-03-17T15:38:49.614Z,26.9
2019-03-17T15:43:46.000Z,27.8
2019-03-17T15:48:42.700Z,27.3
2019-03-17T15:53:39.545Z,30.3
2019-03-17T15:58:35.763Z,30.4
2019-03-17T16:03:32.412Z,31.8
2019-03-17T16:08:28.788Z,33.1
2019-03-17T16:13:25.546Z,32.6
2019-03-17T16:18:22.079Z,33.1
2019-03-17T16:23:18.714Z,32.9
2019-03-17T16:28:15.363Z,33.8
2019-03-17T16:33:11.726Z,34.8
2019-03-17T16:38:08.278Z,35
2019-03-17T16:43:05.353Z,35.1
2019-03-17T16:48:01.806Z,36.6
2019-03-17T16:52:58.572Z,36.2
2019-03-17T16:57:55.271Z,36.3
2019-03-17T17:02:51.920Z,36.9
2019-03-17T17:07:48.355Z,37
2019-03-17T17:12:45.053Z,36.8
2019-03-17T17:17:41.884Z,36.2
2019-03-17T17:22:38.297Z,36.4
2019-03-17T17:27:35.148Z,38.3
2019-03-17T17:32:32.271Z,36.5
2019-03-17T17:37:28.912Z,36
2019-03-17T17:42:25.449Z,38.3
2019-03-17T17:47:22.266Z,37.6
2019-03-17T17:52:18.958Z,38
2019-03-17T17:57:15.853Z,37.4
2019-03-17T18:02:12.192Z,37.3
2019-03-17T18:07:09.143Z,37.2
2019-03-17T18:12:06.174Z,37.6
2019-03-17T18:17:01.987Z,37.8
2019-03-17T18:21:59.082Z,39.3
2019-03-17T18:26:55.675Z,39.3
2019-03-17T18:31:52.821Z,37.1
2019-03-17T18:36:49.620Z,41.3
2019-03-17T18:41:45.762Z,41.2
2019-03-17T18:46:42.604Z,43.2
2019-03-17T18:51:38.835Z,43.7
2019-03-17T18:56:36.473Z,39.5
2019-03-17T19:01:32.877Z,44.5
2019-03-17T19:06:29.221Z,45.1
2019-03-17T19:11:26.106Z,44.7
2019-03-17T19:16:23.076Z,43.9
2019-03-17T19:21:19.500Z,44.3
2019-03-17T19:26:16.284Z,43.7
2019-03-17T19:31:12.894Z,42.4
2019-03-17T19:36:09.679Z,40.7
2019-03-17T19:41:06.368Z,42.6
2019-03-17T19:46:03.011Z,40.5
2019-03-17T19:51:01.248Z,36.3
2019-03-17T19:55:59.551Z,33.4
2019-03-17T20:00:56.746Z,33.9
2019-03-17T20:06:02.798Z,32.2
2019-03-17T20:10:56.698Z,32.9
2019-03-17T20:15:52.351Z,39.5
2019-03-17T20:20:48.845Z,40.5
2019-03-17T20:25:44.991Z,42.3
2019-03-17T20:30:41.530Z,42.1
2019-03-17T20:35:38.460Z,39.4
2019-03-17T20:40:36.081Z,37.3
2019-03-17T20:45:33.355Z,35.6
2019-03-17T20:50:28.866Z,43.6
2019-03-17T20:55:24.100Z,47.3
2019-03-17T21:00:20.536Z,46.4
2019-03-17T21:05:17.287Z,46.3
2019-03-17T21:10:13.851Z,46.2
2019-03-17T21:15:11.081Z,43.8
2019-03-17T21:20:08.377Z,44.9
2019-03-17T21:25:03.841Z,47.1
2019-03-17T21:30:00.560Z,48.5
2019-03-17T21:34:57.213Z,48.2
2019-03-17T21:39:54.003Z,50
2019-03-17T21:44:50.497Z,50.8
2019-03-17T21:49:47.618Z,49.8
2019-03-17T21:54:44.069Z,50.1
2019-03-17T21:59:41.030Z,51
2019-03-17T22:04:37.590Z,50.8
2019-03-17T22:09:34.385Z,51.3
2019-03-17T22:14:30.438Z,51.8
2019-03-17T22:19:27.177Z,51.2
2019-03-17T22:24:23.767Z,52.5
2019-03-17T22:29:20.463Z,51.7
2019-03-17T22:34:16.595Z,54.5
2019-03-17T22:39:13.759Z,50.4
2019-03-17T22:44:10.437Z,51.4
2019-03-17T22:49:07.056Z,53.7
2019-03-17T22:54:03.718Z,53.9
2019-03-17T22:59:00.408Z,54.3
2019-03-17T23:03:56.952Z,54.2
2019-03-17T23:08:53.578Z,54.5
2019-03-17T23:13:50.357Z,52
2019-03-17T23:18:47.262Z,52.8
2019-03-17T23:23:43.625Z,54.5
2019-03-17T23:28:40.343Z,54.8
2019-03-17T23:33:36.838Z,55.5
2019-03-17T23:38:33.586Z,56.5
2019-03-17T23:43:30.171Z,57.8
2019-03-17T23:48:26.790Z,59.6
2019-03-17T23:53:23.451Z,60.5
2019-03-17T23:58:20.588Z,57.1
